Time;durP1;ratioP1;P1;durP2;ratioP2;P2;SDS_P1;SDS_P2;PMS_P1;PMS_P2;Temp;Humidity;BMP_temperature;BMP_pressure;BME280_temperature;BME280_humidity;BME280_pressure;Samples;Min_cycle;Max_cycle;Signal;HPM_P1;HPM_P2
2022/08/31 00:05:49;;;;;;;3.53;2.63;;;20.10;8.30;;;;;;5167896;27;34080;-75
2022/08/31 00:08:15;;;;;;;3.50;2.80;;;20.10;8.60;;;;;;5132864;27;35801;-75
2022/08/31 00:10:44;;;;;;;4.00;3.03;;;20.10;8.70;;;;;;5150020;27;34224;-75
2022/08/31 00:13:11;;;;;;;2.80;2.60;;;20.10;8.60;;;;;;5133409;27;34028;-76
2022/08/31 00:15:37;;;;;;;4.88;3.17;;;20.00;8.80;;;;;;5168483;27;34242;-75
2022/08/31 00:18:04;;;;;;;3.97;2.83;;;20.00;8.70;;;;;;5149897;27;35580;-76
2022/08/31 00:20:30;;;;;;;4.75;2.88;;;20.00;8.80;;;;;;5149573;27;34450;-75
2022/08/31 00:22:56;;;;;;;3.00;2.67;;;20.00;8.70;;;;;;5168639;27;34069;-76
2022/08/31 00:25:22;;;;;;;3.83;2.90;;;20.00;8.70;;;;;;5132324;27;34627;-75
2022/08/31 00:27:49;;;;;;;3.55;2.70;;;20.00;9.00;;;;;;5149889;27;36570;-75
2022/08/31 00:30:17;;;;;;;4.00;2.70;;;19.90;8.90;;;;;;5149942;27;34087;-77
2022/08/31 00:32:43;;;;;;;3.58;3.08;;;19.90;9.20;;;;;;5149564;27;34348;-76
2022/08/31 00:35:09;;;;;;;3.10;2.80;;;19.90;8.80;;;;;;5115973;27;34114;-75
2022/08/31 00:37:35;;;;;;;5.28;2.90;;;19.90;9.00;;;;;;5132177;27;35880;-75
2022/08/31 00:40:01;;;;;;;3.33;2.72;;;19.80;8.80;;;;;;5115323;27;34075;-76
2022/08/31 00:42:27;;;;;;;5.30;2.50;;;19.90;8.80;;;;;;5149468;27;34703;-75
2022/08/31 00:44:53;;;;;;;3.28;2.90;;;19.90;9.00;;;;;;5149571;27;34135;-75
2022/08/31 00:47:19;;;;;;;3.80;2.65;;;19.90;8.80;;;;;;5149761;27;34150;-75
2022/08/31 00:49:50;;;;;;;3.55;2.60;;;19.90;9.10;;;;;;5132455;27;34237;-75
2022/08/31 00:52:21;;;;;;;4.10;2.60;;;19.90;9.00;;;;;;5149637;27;34195;-76
2022/08/31 00:54:55;;;;;;;3.17;2.60;;;19.90;9.40;;;;;;5132758;27;34018;-75
2022/08/31 00:57:23;;;;;;;3.05;2.70;;;19.90;9.70;;;;;;5149068;27;35742;-75
2022/08/31 00:59:50;;;;;;;3.00;2.67;;;19.90;8.90;;;;;;5168123;27;34190;-75
2022/08/31 01:02:17;;;;;;;3.55;2.92;;;19.90;8.80;;;;;;5149379;27;34234;-75
2022/08/31 01:04:43;;;;;;;2.88;2.65;;;19.90;8.80;;;;;;5149591;27;34332;-75
2022/08/31 01:07:09;;;;;;;3.67;2.83;;;20.00;8.70;;;;;;5167887;27;34371;-75
2022/08/31 01:09:39;;;;;;;3.20;2.53;;;19.90;8.60;;;;;;5149274;27;34412;-75
2022/08/31 01:12:07;;;;;;;3.63;2.80;;;19.90;8.90;;;;;;5131988;27;34216;-75
2022/08/31 01:14:36;;;;;;;3.05;2.55;;;19.90;8.80;;;;;;5148673;27;34324;-75
2022/08/31 01:17:03;;;;;;;4.45;3.05;;;19.90;8.60;;;;;;5148762;27;35772;-75
2022/08/31 01:19:36;;;;;;;3.30;2.80;;;19.90;8.70;;;;;;5131686;27;34313;-75
2022/08/31 01:22:17;;;;;;;2.67;2.47;;;19.90;9.40;;;;;;5148832;27;34126;-75
2022/08/31 01:24:46;;;;;;;4.05;2.50;;;19.90;9.70;;;;;;5148829;27;34071;-75
2022/08/31 01:27:17;;;;;;;3.28;2.63;;;19.90;9.10;;;;;;5167011;27;35148;-75
2022/08/31 01:29:43;;;;;;;5.97;2.55;;;19.80;9.00;;;;;;5131844;27;34191;-75
2022/08/31 01:32:08;;;;;;;3.00;2.70;;;19.80;8.80;;;;;;5149154;27;34245;-75
2022/08/31 01:34:35;;;;;;;5.05;2.67;;;19.70;9.10;;;;;;5148952;27;34135;-76
2022/08/31 01:37:01;;;;;;;4.43;2.60;;;19.70;9.20;;;;;;5148512;27;35563;-77
2022/08/31 01:39:27;;;;;;;3.08;2.40;;;19.60;9.10;;;;;;5167018;27;34139;-75
2022/08/31 01:41:53;;;;;;;3.85;3.00;;;19.60;9.30;;;;;;5148464;27;34172;-76
2022/08/31 01:44:21;;;;;;;6.30;2.50;;;19.50;9.30;;;;;;5131538;27;34508;-75
2022/08/31 01:46:47;;;;;;;3.45;2.83;;;19.50;9.50;;;;;;5148659;27;34333;-75
2022/08/31 01:49:14;;;;;;;3.15;2.50;;;19.50;9.50;;;;;;5148821;27;34137;-75
2022/08/31 01:51:41;;;;;;;3.90;2.33;;;19.40;9.90;;;;;;5148581;27;34078;-76
2022/08/31 01:54:07;;;;;;;4.03;3.05;;;19.40;9.50;;;;;;5167151;27;34034;-76
2022/08/31 01:56:37;;;;;;;3.50;2.88;;;19.30;9.70;;;;;;5148119;27;35871;-75
2022/08/31 01:59:05;;;;;;;3.60;2.55;;;19.20;10.00;;;;;;5148340;27;34159;-75
2022/08/31 02:01:33;;;;;;;3.10;2.58;;;19.10;9.80;;;;;;5147822;27;34050;-75
2022/08/31 02:04:01;;;;;;;5.13;2.97;;;19.00;10.00;;;;;;5148657;27;34027;-75
2022/08/31 02:06:27;;;;;;;2.58;2.35;;;18.90;9.90;;;;;;5166466;27;34359;-76
2022/08/31 02:08:53;;;;;;;3.33;2.60;;;18.90;10.00;;;;;;5148280;27;34205;-75
2022/08/31 02:11:19;;;;;;;4.15;2.67;;;18.80;10.10;;;;;;5167035;27;34199;-75
2022/08/31 02:13:45;;;;;;;3.20;2.67;;;18.80;10.20;;;;;;5131715;27;34477;-75
2022/08/31 02:16:11;;;;;;;3.50;2.25;;;18.70;10.20;;;;;;5148043;27;35840;-75
2022/08/31 02:18:36;;;;;;;5.35;2.78;;;18.70;10.40;;;;;;5130635;27;34154;-75
2022/08/31 02:21:03;;;;;;;3.08;2.40;;;18.70;10.30;;;;;;5147701;27;34161;-76
2022/08/31 02:23:29;;;;;;;2.95;2.50;;;18.60;10.40;;;;;;5167035;27;34193;-76
2022/08/31 02:25:55;;;;;;;3.63;2.80;;;18.60;10.40;;;;;;5147933;27;35634;-75
2022/08/31 02:28:22;;;;;;;3.53;2.55;;;18.60;10.40;;;;;;5147876;27;34169;-75
2022/08/31 02:30:48;;;;;;;3.40;2.40;;;18.60;10.30;;;;;;5147788;27;34363;-75
2022/08/31 02:33:14;;;;;;;4.03;2.70;;;18.50;10.50;;;;;;5148277;27;34051;-75
2022/08/31 02:35:41;;;;;;;5.32;2.35;;;18.50;10.30;;;;;;5147683;27;35616;-75
2022/08/31 02:38:08;;;;;;;4.43;2.50;;;18.50;10.60;;;;;;5148286;27;34152;-75
2022/08/31 02:40:37;;;;;;;4.25;2.30;;;18.50;10.60;;;;;;5147569;27;34577;-75
2022/08/31 02:43:08;;;;;;;4.25;2.80;;;18.50;10.40;;;;;;5147778;27;34066;-75
2022/08/31 02:45:34;;;;;;;5.50;2.08;;;18.50;10.60;;;;;;5131076;27;34182;-75
2022/08/31 02:48:01;;;;;;;5.70;2.15;;;18.50;10.10;;;;;;5166400;27;34048;-75
2022/08/31 02:50:27;;;;;;;3.65;2.10;;;18.60;10.10;;;;;;5130213;27;34261;-75
2022/08/31 02:52:55;;;;;;;3.92;2.88;;;18.70;9.60;;;;;;5147540;27;34178;-76
2022/08/31 02:55:24;;;;;;;3.95;2.40;;;18.80;9.40;;;;;;5165908;27;34040;-76
2022/08/31 02:57:51;;;;;;;3.17;2.33;;;18.90;9.70;;;;;;5166139;27;34042;-74
2022/08/31 03:00:20;;;;;;;3.70;2.40;;;18.90;9.20;;;;;;5147543;27;34504;-76
2022/08/31 03:02:47;;;;;;;2.40;2.20;;;18.90;9.20;;;;;;5147796;27;34250;-75
2022/08/31 03:05:13;;;;;;;4.38;2.40;;;19.00;8.90;;;;;;5146973;27;36372;-75
2022/08/31 03:07:40;;;;;;;3.47;1.98;;;19.00;8.90;;;;;;5147550;27;34219;-75
2022/08/31 03:10:09;;;;;;;4.57;2.67;;;19.00;8.90;;;;;;5147976;27;34193;-75
2022/08/31 03:12:36;;;;;;;3.00;2.30;;;19.10;8.90;;;;;;5149673;27;34125;-75
2022/08/31 03:15:03;;;;;;;4.53;2.53;;;19.20;8.80;;;;;;5150823;27;35665;-75
2022/08/31 03:17:30;;;;;;;3.55;2.17;;;19.30;8.80;;;;;;5151147;27;34169;-75
2022/08/31 03:19:59;;;;;;;3.13;2.40;;;19.30;8.70;;;;;;5150693;27;34457;-75
2022/08/31 03:22:26;;;;;;;3.40;2.30;;;19.30;8.70;;;;;;5151038;27;34114;-75
2022/08/31 03:24:52;;;;;;;4.00;2.47;;;19.30;8.90;;;;;;5150711;27;35721;-75
2022/08/31 03:27:18;;;;;;;3.67;2.75;;;19.40;8.80;;;;;;5151274;27;34085;-75
2022/08/31 03:29:44;;;;;;;3.58;2.53;;;19.40;8.70;;;;;;5169619;27;34359;-75
2022/08/31 03:32:10;;;;;;;4.28;2.50;;;19.40;8.90;;;;;;5151132;27;33988;-75
2022/08/31 03:34:36;;;;;;;3.45;2.20;;;19.40;8.70;;;;;;5169025;27;34433;-75
2022/08/31 03:37:03;;;;;;;6.55;2.67;;;19.50;9.20;;;;;;5150618;27;34060;-76
2022/08/31 03:39:29;;;;;;;2.90;2.60;;;19.50;8.60;;;;;;5151411;27;34223;-75
2022/08/31 03:41:55;;;;;;;3.13;2.22;;;19.50;8.60;;;;;;5150871;27;34165;-75
2022/08/31 03:44:22;;;;;;;3.83;2.67;;;19.60;8.60;;;;;;5168987;27;34206;-74
2022/08/31 03:46:53;;;;;;;3.72;2.30;;;19.60;8.90;;;;;;5133352;27;34213;-75
2022/08/31 03:49:20;;;;;;;4.60;2.33;;;19.60;9.00;;;;;;5150647;27;34198;-75
2022/08/31 03:51:46;;;;;;;4.82;2.28;;;19.60;8.70;;;;;;5133673;27;34102;-76
2022/08/31 03:54:13;;;;;;;3.22;2.05;;;19.60;8.70;;;;;;5168692;27;35120;-75
2022/08/31 03:56:39;;;;;;;3.05;2.40;;;19.60;8.60;;;;;;5150553;27;34095;-75
2022/08/31 03:59:06;;;;;;;3.65;2.60;;;19.70;8.70;;;;;;5150542;27;34101;-75
2022/08/31 04:01:35;;;;;;;4.28;2.40;;;19.70;8.60;;;;;;5150186;27;34171;-75
2022/08/31 04:04:01;;;;;;;3.20;2.63;;;19.70;8.80;;;;;;5150887;27;34361;-75
2022/08/31 04:06:27;;;;;;;4.85;2.80;;;19.70;8.60;;;;;;5149858;27;34086;-75
2022/08/31 04:08:54;;;;;;;2.83;2.40;;;19.70;8.80;;;;;;5132936;27;34089;-75
2022/08/31 04:11:20;;;;;;;2.78;2.38;;;19.70;8.70;;;;;;5150128;27;34282;-75
2022/08/31 04:13:47;;;;;;;5.15;2.45;;;19.60;8.80;;;;;;5149974;27;36414;-75
2022/08/31 04:16:17;;;;;;;2.88;2.05;;;19.60;8.70;;;;;;5132825;27;34269;-75
2022/08/31 04:18:44;;;;;;;4.72;2.28;;;19.60;9.00;;;;;;5132689;27;34131;-75
2022/08/31 04:21:17;;;;;;;4.03;2.65;;;19.60;9.50;;;;;;5150074;27;34085;-75
2022/08/31 04:23:42;;;;;;;4.47;2.97;;;19.60;8.90;;;;;;5149130;27;35788;-75
2022/08/31 04:26:25;;;;;;;2.95;2.28;;;19.60;9.00;;;;;;5149873;27;34027;-75
2022/08/31 04:28:52;;;;;;;2.10;1.90;;;19.60;9.80;;;;;;5168607;27;34249;-75
2022/08/31 04:31:19;;;;;;;2.22;2.03;;;19.60;8.80;;;;;;5132656;27;34048;-75
2022/08/31 04:33:45;;;;;;;3.03;2.22;;;19.60;8.90;;;;;;5168426;27;34917;-75
2022/08/31 04:36:14;;;;;;;5.30;2.40;;;19.60;9.00;;;;;;5149814;27;34334;-75
2022/08/31 04:38:43;;;;;;;2.95;2.65;;;19.60;9.00;;;;;;5149873;27;34191;-75
2022/08/31 04:41:11;;;;;;;4.53;2.60;;;19.50;9.20;;;;;;5150030;27;34513;-75
2022/08/31 04:43:39;;;;;;;4.03;2.60;;;19.50;9.00;;;;;;5150001;27;34116;-75
2022/08/31 04:46:07;;;;;;;2.47;2.10;;;19.50;9.00;;;;;;5132541;27;34140;-74
2022/08/31 04:48:34;;;;;;;5.28;2.95;;;19.50;9.30;;;;;;5149190;27;34310;-75
2022/08/31 04:51:08;;;;;;;2.85;2.53;;;19.50;9.30;;;;;;5168390;27;34003;-75
2022/08/31 04:53:35;;;;;;;5.03;2.55;;;19.50;9.80;;;;;;5132643;27;36253;-75
2022/08/31 04:56:08;;;;;;;3.65;2.30;;;19.50;9.50;;;;;;5132922;27;34218;-75
2022/08/31 04:58:34;;;;;;;3.88;3.00;;;19.50;10.00;;;;;;5132491;27;34001;-75
2022/08/31 05:01:00;;;;;;;3.67;2.95;;;19.50;9.40;;;;;;5167888;27;34550;-75
2022/08/31 05:03:26;;;;;;;4.13;2.85;;;19.50;9.60;;;;;;5127718;27;35901;-75
2022/08/31 05:05:52;;;;;;;4.55;2.58;;;19.50;9.70;;;;;;5143738;27;34299;-75
2022/08/31 05:08:19;;;;;;;7.72;2.90;;;19.50;9.60;;;;;;5163381;27;34187;-75
2022/08/31 05:10:47;;;;;;;4.53;2.72;;;19.50;9.70;;;;;;5167157;27;34033;-75
2022/08/31 05:13:13;;;;;;;12.45;2.70;;;19.50;9.70;;;;;;5166699;27;35228;-75
2022/08/31 05:15:41;;;;;;;6.18;2.60;;;19.50;9.60;;;;;;5160961;27;34004;-75
2022/08/31 05:18:08;;;;;;;4.53;2.90;;;19.60;9.80;;;;;;5161287;27;34292;-75
2022/08/31 05:20:34;;;;;;;4.18;2.60;;;19.50;9.60;;;;;;5148599;27;34173;-75
2022/08/31 05:23:06;;;;;;;2.85;2.45;;;19.50;9.70;;;;;;5128299;27;34514;-75
2022/08/31 05:25:32;;;;;;;3.88;2.40;;;19.60;9.80;;;;;;5166518;27;34276;-74
2022/08/31 05:27:59;;;;;;;4.07;2.67;;;19.60;10.40;;;;;;5166803;27;34197;-75
2022/08/31 05:30:25;;;;;;;5.03;2.60;;;19.60;9.80;;;;;;5148282;27;34142;-75
2022/08/31 05:32:51;;;;;;;3.83;2.25;;;19.70;9.80;;;;;;5166860;27;34668;-75
2022/08/31 05:35:17;;;;;;;3.58;2.33;;;19.70;9.80;;;;;;5129678;27;34219;-75
2022/08/31 05:37:43;;;;;;;13.05;3.03;;;19.70;9.70;;;;;;5130342;27;34231;-75
2022/08/31 05:40:10;;;;;;;13.20;2.92;;;19.70;9.70;;;;;;5120604;27;34317;-77
2022/08/31 05:42:58;;;;;;;4.55;3.20;;;19.70;10.20;;;;;;5147266;27;35857;-77
2022/08/31 05:45:24;;;;;;;13.27;3.17;;;19.70;13.50;;;;;;5166342;27;34262;-76
2022/08/31 05:47:50;;;;;;;3.42;2.70;;;19.60;11.00;;;;;;5126102;27;34546;-77
2022/08/31 05:50:17;;;;;;;5.07;3.55;;;19.50;11.60;;;;;;5147217;27;34343;-77
2022/08/31 05:52:43;;;;;;;5.13;3.10;;;19.40;12.00;;;;;;5144911;27;36578;-77
2022/08/31 05:55:10;;;;;;;7.20;3.58;;;19.30;12.60;;;;;;5128693;27;34261;-76
2022/08/31 05:57:39;;;;;;;5.10;2.92;;;19.30;13.20;;;;;;5146204;27;34021;-76
2022/08/31 06:00:07;;;;;;;4.93;3.38;;;19.20;13.60;;;;;;5135867;27;34062;-76
2022/08/31 06:02:35;;;;;;;8.57;3.22;;;19.20;14.20;;;;;;5126447;27;35767;-76
2022/08/31 06:05:01;;;;;;;7.47;3.50;;;19.10;14.40;;;;;;5118702;27;34106;-76
2022/08/31 06:07:27;;;;;;;3.72;3.25;;;19.10;14.50;;;;;;5127177;27;34231;-76
2022/08/31 06:09:54;;;;;;;4.97;3.78;;;19.00;14.80;;;;;;5140883;27;34106;-75
2022/08/31 06:12:24;;;;;;;4.38;3.45;;;19.00;15.30;;;;;;5123072;27;35566;-76
2022/08/31 06:14:50;;;;;;;6.68;3.75;;;19.00;15.30;;;;;;5107546;27;34409;-77
2022/08/31 06:17:16;;;;;;;8.70;3.85;;;18.90;15.70;;;;;;5106817;27;34400;-76
2022/08/31 06:19:42;;;;;;;6.60;3.70;;;18.90;16.10;;;;;;5080457;28;34441;-76
2022/08/31 06:22:08;;;;;;;12.40;3.92;;;18.80;16.10;;;;;;5069289;28;36130;-75
2022/08/31 06:24:35;;;;;;;6.93;3.80;;;18.80;16.50;;;;;;5100735;27;34413;-76
2022/08/31 06:27:03;;;;;;;7.72;3.95;;;18.70;16.80;;;;;;5125079;27;34343;-76
2022/08/31 06:29:30;;;;;;;6.22;3.90;;;18.70;17.20;;;;;;5106928;27;34291;-75
2022/08/31 06:31:56;;;;;;;7.75;4.13;;;18.70;17.20;;;;;;5106531;27;35804;-76
2022/08/31 06:34:23;;;;;;;6.10;3.92;;;18.70;17.50;;;;;;5124506;27;34126;-76
2022/08/31 06:36:49;;;;;;;8.60;4.25;;;18.70;17.80;;;;;;5123551;27;34096;-76
2022/08/31 06:39:15;;;;;;;8.77;4.45;;;18.70;17.90;;;;;;5125059;27;34193;-76
2022/08/31 06:41:42;;;;;;;6.28;3.88;;;18.60;18.10;;;;;;5105831;27;35770;-76
2022/08/31 06:44:11;;;;;;;5.80;4.07;;;18.60;18.40;;;;;;5124555;27;34055;-76
2022/08/31 06:46:39;;;;;;;7.10;4.07;;;18.60;18.60;;;;;;5102756;27;34469;-76
2022/08/31 06:49:05;;;;;;;5.88;3.85;;;18.60;18.70;;;;;;5098358;27;34204;-75
2022/08/31 06:51:35;;;;;;;12.13;4.50;;;18.60;18.80;;;;;;5124142;27;34173;-75
2022/08/31 06:54:03;;;;;;;5.53;3.97;;;18.60;19.10;;;;;;5124196;27;34250;-75
2022/08/31 06:56:30;;;;;;;6.03;4.15;;;18.50;19.50;;;;;;5105844;27;34236;-75
2022/08/31 06:58:56;;;;;;;8.68;4.20;;;18.50;19.50;;;;;;5088876;27;34538;-75
2022/08/31 07:01:27;;;;;;;9.40;4.13;;;18.50;19.50;;;;;;5088121;27;35676;-75
2022/08/31 07:03:55;;;;;;;6.57;4.00;;;18.60;19.60;;;;;;5109134;27;34186;-75
2022/08/31 07:06:24;;;;;;;6.78;4.45;;;18.60;20.10;;;;;;5120262;27;34196;-76
2022/08/31 07:08:55;;;;;;;6.63;4.25;;;18.60;19.90;;;;;;5105751;27;34402;-75
2022/08/31 07:11:25;;;;;;;5.40;3.85;;;18.60;19.90;;;;;;5115130;27;35044;-75
2022/08/31 07:13:53;;;;;;;5.80;4.47;;;18.60;20.20;;;;;;5108399;27;34190;-75
2022/08/31 07:16:22;;;;;;;5.85;3.53;;;18.60;19.80;;;;;;5105340;27;34277;-76
2022/08/31 07:18:49;;;;;;;6.10;3.85;;;18.60;20.00;;;;;;5105673;27;34563;-75
2022/08/31 07:21:18;;;;;;;7.35;4.18;;;18.60;20.00;;;;;;5088917;27;35693;-75
2022/08/31 07:23:45;;;;;;;6.13;4.28;;;18.70;20.40;;;;;;5119421;27;34150;-75
2022/08/31 07:26:21;;;;;;;7.10;4.15;;;18.70;20.40;;;;;;5126413;27;34169;-75
2022/08/31 07:28:51;;;;;;;4.38;3.97;;;18.60;20.70;;;;;;5126460;27;34122;-75
2022/08/31 07:31:21;;;;;;;6.68;4.40;;;18.70;20.30;;;;;;5144043;27;35238;-76
2022/08/31 07:33:49;;;;;;;6.18;4.03;;;18.70;20.40;;;;;;5144763;27;34078;-76
2022/08/31 07:36:16;;;;;;;6.10;4.50;;;18.70;20.50;;;;;;5126327;27;34017;-77
2022/08/31 07:44:07;;;;;;;6.10;4.55;;;18.80;20.20;;;;;;5117698;27;34232;-77
2022/08/31 07:46:34;;;;;;;6.18;4.43;;;18.80;20.40;;;;;;5105388;27;34166;-76
2022/08/31 07:49:00;;;;;;;6.10;4.50;;;18.80;20.40;;;;;;5132921;27;34346;-75
2022/08/31 07:51:26;;;;;;;5.32;4.80;;;18.80;20.50;;;;;;5108242;27;35590;-76
2022/08/31 07:53:54;;;;;;;4.45;4.03;;;18.80;20.60;;;;;;5125837;27;34213;-75
2022/08/31 07:56:22;;;;;;;6.30;4.38;;;18.80;20.80;;;;;;5125785;27;35302;-76
2022/08/31 07:58:48;;;;;;;5.45;4.28;;;18.80;20.90;;;;;;5110937;27;34001;-76
2022/08/31 08:01:16;;;;;;;8.55;5.40;;;18.80;20.80;;;;;;5126769;27;34531;-76
2022/08/31 08:03:43;;;;;;;6.25;4.40;;;18.80;21.00;;;;;;5118096;27;34065;-77
2022/08/31 08:06:11;;;;;;;6.80;4.50;;;18.90;21.20;;;;;;5147580;27;34198;-76
2022/08/31 08:08:39;;;;;;;6.00;4.65;;;19.00;21.40;;;;;;5147524;27;34098;-76
2022/08/31 08:11:05;;;;;;;7.25;4.88;;;19.10;21.20;;;;;;5125968;27;36178;-77
2022/08/31 08:13:31;;;;;;;6.15;4.63;;;19.10;21.20;;;;;;5129662;27;34122;-76
2022/08/31 08:15:58;;;;;;;9.57;4.93;;;19.30;21.00;;;;;;5128686;27;34347;-77
2022/08/31 08:18:23;;;;;;;6.35;4.47;;;19.30;21.00;;;;;;5147475;27;34357;-77
2022/08/31 08:20:51;;;;;;;5.53;4.68;;;19.40;21.00;;;;;;5128235;27;35062;-76
2022/08/31 08:23:18;;;;;;;6.72;4.60;;;19.50;20.60;;;;;;5129659;27;34308;-77
2022/08/31 08:25:45;;;;;;;6.90;4.93;;;19.60;20.30;;;;;;5128825;27;34323;-76
2022/08/31 08:28:16;;;;;;;5.35;4.40;;;19.70;20.70;;;;;;5129392;27;34091;-77
2022/08/31 08:30:44;;;;;;;5.18;4.35;;;19.80;20.60;;;;;;5128886;27;35449;-77
2022/08/31 08:33:10;;;;;;;6.55;4.57;;;19.80;20.80;;;;;;5129242;27;35228;-76
2022/08/31 08:35:35;;;;;;;5.63;4.38;;;19.80;20.50;;;;;;5129145;27;34162;-76
2022/08/31 08:38:02;;;;;;;5.55;4.60;;;19.80;21.00;;;;;;5095082;27;34389;-77
2022/08/31 08:40:38;;;;;;;8.27;4.57;;;19.80;20.80;;;;;;5146846;27;34458;-76
2022/08/31 08:43:04;;;;;;;4.68;4.28;;;19.80;22.10;;;;;;5129828;27;34413;-77
2022/08/31 08:45:32;;;;;;;4.95;4.35;;;19.80;21.20;;;;;;5128447;27;34195;-76
2022/08/31 08:47:58;;;;;;;5.15;4.55;;;19.80;20.70;;;;;;5128814;27;34488;-76
2022/08/31 08:50:27;;;;;;;5.95;4.10;;;19.80;20.90;;;;;;5128072;27;36627;-76
2022/08/31 08:52:56;;;;;;;6.35;4.32;;;19.90;20.80;;;;;;5147190;27;34196;-76
2022/08/31 08:55:33;;;;;;;6.65;4.57;;;19.90;20.90;;;;;;5128231;27;34173;-76
2022/08/31 08:58:01;;;;;;;5.55;4.45;;;20.00;22.20;;;;;;5147165;27;34288;-76
2022/08/31 09:00:27;;;;;;;6.20;4.82;;;20.00;21.10;;;;;;5127967;27;36523;-76
2022/08/31 09:03:14;;;;;;;6.53;4.57;;;20.10;21.60;;;;;;5128984;27;34137;-76
2022/08/31 09:06:06;;;;;;;7.32;5.15;;;20.20;24.40;;;;;;5128711;27;34314;-76
2022/08/31 09:09:10;;;;;;;5.22;4.65;;;20.20;23.80;;;;;;5146828;27;34346;-76
2022/08/31 09:11:56;;;;;;;5.03;4.32;;;20.30;23.80;;;;;;5113813;27;36663;-76
2022/08/31 09:14:38;;;;;;;5.20;4.57;;;20.30;22.80;;;;;;5127772;27;34147;-76
2022/08/31 09:17:33;;;;;;;7.25;4.88;;;20.40;22.70;;;;;;5140887;27;34151;-76
2022/08/31 09:20:03;;;;;;;9.50;4.60;;;20.50;24.20;;;;;;5145895;27;34063;-75
2022/08/31 09:22:33;;;;;;;5.38;4.70;;;20.50;21.50;;;;;;5127688;27;35578;-76
2022/08/31 09:25:01;;;;;;;5.25;4.53;;;20.60;20.80;;;;;;5127713;27;34078;-76
2022/08/31 09:27:45;;;;;;;7.22;5.45;;;20.70;20.70;;;;;;5148421;27;34043;-75
2022/08/31 09:30:16;;;;;;;5.95;4.85;;;20.80;23.30;;;;;;5146834;27;34044;-75
2022/08/31 09:32:55;;;;;;;7.75;4.63;;;20.90;20.90;;;;;;5094599;27;35550;-75
2022/08/31 09:35:28;;;;;;;6.50;4.88;;;21.00;22.20;;;;;;5127936;27;34112;-76
2022/08/31 09:38:08;;;;;;;5.65;4.78;;;21.10;20.70;;;;;;5127761;27;34147;-75
2022/08/31 09:40:51;;;;;;;8.20;5.45;;;21.20;21.50;;;;;;5127641;27;34192;-76
2022/08/31 09:43:36;;;;;;;6.30;4.95;;;21.20;23.00;;;;;;5127723;27;36107;-76
2022/08/31 09:46:08;;;;;;;6.82;5.30;;;21.40;22.20;;;;;;5146270;27;33993;-76
2022/08/31 09:48:55;;;;;;;5.75;4.63;;;21.50;21.50;;;;;;5127272;27;34164;-76
2022/08/31 09:51:28;;;;;;;6.35;4.38;;;21.60;20.30;;;;;;5112408;27;34578;-76
2022/08/31 09:56:54;;;;;;;7.85;4.22;;;21.80;20.20;;;;;;5114779;27;34139;-76
2022/08/31 09:59:30;;;;;;;6.72;4.45;;;21.80;19.20;;;;;;5111086;27;34400;-76
2022/08/31 10:01:59;;;;;;;6.68;4.25;;;21.70;19.70;;;;;;5093987;27;34137;-76
2022/08/31 10:04:28;;;;;;;5.72;4.65;;;21.70;19.30;;;;;;5145847;27;35164;-76
2022/08/31 10:07:10;;;;;;;5.65;4.82;;;21.70;19.30;;;;;;5127211;27;34150;-76
2022/08/31 10:10:26;;;;;;;8.80;4.43;;;21.80;20.60;;;;;;5127353;27;34345;-76
2022/08/31 10:13:10;;;;;;;6.95;5.15;;;21.80;20.60;;;;;;5127559;27;34083;-76
2022/08/31 10:15:47;;;;;;;6.32;4.65;;;21.80;19.40;;;;;;5127341;27;36518;-76
2022/08/31 10:18:38;;;;;;;10.65;5.07;;;21.80;19.60;;;;;;5110681;27;34325;-76
2022/08/31 10:21:09;;;;;;;6.65;4.88;;;21.80;21.80;;;;;;5126644;27;34090;-77
2022/08/31 10:23:53;;;;;;;7.82;4.78;;;21.90;19.50;;;;;;5145000;27;34259;-77
2022/08/31 10:26:35;;;;;;;8.10;5.10;;;22.20;19.60;;;;;;5142417;27;34853;-77
2022/08/31 10:29:12;;;;;;;7.25;4.68;;;22.40;19.40;;;;;;5139843;27;34382;-78
2022/08/31 10:31:44;;;;;;;7.88;4.50;;;22.60;19.50;;;;;;5139233;27;34613;-77
2022/08/31 10:37:08;;;;;;;12.57;4.75;;;22.90;19.00;;;;;;5125563;27;34249;-77
2022/08/31 10:39:43;;;;;;;7.28;4.60;;;23.00;18.20;;;;;;5119593;27;34238;-78
2022/08/31 10:42:19;;;;;;;5.30;4.30;;;23.10;18.10;;;;;;5124471;27;34189;-77
2022/08/31 10:44:55;;;;;;;5.80;4.82;;;23.10;18.10;;;;;;5145532;27;34445;-78
2022/08/31 10:47:28;;;;;;;6.25;4.50;;;23.00;18.30;;;;;;5145750;27;35031;-76
2022/08/31 10:49:57;;;;;;;7.03;4.65;;;23.10;18.90;;;;;;5144577;27;34413;-77
2022/08/31 10:52:32;;;;;;;8.90;5.05;;;23.20;18.80;;;;;;5143119;27;34200;-77
2022/08/31 10:55:28;;;;;;;5.63;4.80;;;23.30;19.00;;;;;;5136570;27;34165;-78
2022/08/31 10:58:16;;;;;;;5.50;4.47;;;23.40;19.60;;;;;;5132728;27;36494;-78
2022/08/31 11:00:55;;;;;;;8.05;4.47;;;23.50;19.00;;;;;;5134112;27;34181;-78
2022/08/31 11:03:47;;;;;;;5.47;4.72;;;23.60;19.10;;;;;;5123944;27;34149;-77
2022/08/31 11:06:44;;;;;;;5.60;4.50;;;23.70;20.60;;;;;;5125638;27;34327;-77
2022/08/31 11:09:22;;;;;;;8.90;5.03;;;23.80;19.50;;;;;;5134847;27;35007;-77
2022/08/31 11:11:56;;;;;;;5.82;4.82;;;23.80;18.10;;;;;;5136684;27;34355;-77
2022/08/31 11:15:00;;;;;;;5.95;4.53;;;23.90;18.00;;;;;;5129559;27;34337;-77
2022/08/31 11:17:42;;;;;;;6.38;4.63;;;24.00;19.20;;;;;;5130636;27;34280;-77
2022/08/31 11:20:39;;;;;;;5.55;4.13;;;24.10;18.70;;;;;;5134522;27;35798;-78
2022/08/31 11:23:25;;;;;;;5.47;4.03;;;24.10;17.00;;;;;;5166229;27;34262;-77
2022/08/31 11:26:23;;;;;;;5.53;4.30;;;24.30;16.90;;;;;;5147412;27;34329;-77
2022/08/31 11:28:55;;;;;;;5.47;4.10;;;24.60;15.10;;;;;;5149490;27;34324;-77
2022/08/31 11:31:26;;;;;;;4.65;3.45;;;24.90;15.80;;;;;;5128126;27;35820;-79
2022/08/31 11:33:56;;;;;;;5.53;3.70;;;25.00;15.30;;;;;;5149371;27;34370;-77
2022/08/31 11:36:42;;;;;;;7.63;3.92;;;25.20;15.10;;;;;;5166986;27;34184;-77
2022/08/31 11:39:35;;;;;;;4.90;3.33;;;25.30;13.60;;;;;;5150509;27;34164;-77
2022/08/31 11:42:07;;;;;;;3.53;3.22;;;25.20;11.60;;;;;;5127724;27;35968;-78
2022/08/31 11:44:58;;;;;;;4.55;3.90;;;25.30;13.90;;;;;;5137532;27;34154;-77
2022/08/31 11:47:36;;;;;;;6.25;3.42;;;25.30;12.20;;;;;;5149392;27;34179;-77
2022/08/31 11:50:10;;;;;;;3.97;3.55;;;25.30;12.50;;;;;;5124711;27;34257;-79
2022/08/31 11:52:47;;;;;;;3.90;3.53;;;25.30;12.40;;;;;;5148654;27;36051;-77
2022/08/31 11:55:25;;;;;;;3.60;3.05;;;25.30;13.60;;;;;;5151001;27;34086;-77
2022/08/31 11:58:14;;;;;;;4.15;2.88;;;25.20;12.50;;;;;;5134092;27;34295;-78
2022/08/31 12:00:46;;;;;;;3.00;2.50;;;25.40;11.10;;;;;;5169334;27;34262;-78
2022/08/31 12:03:51;;;;;;;3.10;2.83;;;25.50;11.70;;;;;;5133782;27;35746;-77
2022/08/31 12:06:45;;;;;;;3.60;2.58;;;25.60;12.10;;;;;;5121664;27;34217;-77
2022/08/31 12:09:42;;;;;;;4.20;2.42;;;25.80;10.00;;;;;;5137584;27;34260;-76
2022/08/31 12:12:26;;;;;;;2.88;2.63;;;25.90;10.20;;;;;;5138672;27;34221;-78
2022/08/31 12:15:08;;;;;;;3.55;2.55;;;26.00;10.60;;;;;;5132799;27;35653;-77
2022/08/31 12:17:59;;;;;;;2.58;2.38;;;26.20;11.40;;;;;;5168742;27;34179;-76
2022/08/31 12:23:43;;;;;;;4.50;2.72;;;26.50;9.70;;;;;;5162683;27;34054;-77
2022/08/31 12:26:39;;;;;;;4.45;2.42;;;26.80;9.80;;;;;;5133656;27;35870;-77
2022/08/31 12:29:21;;;;;;;2.63;2.42;;;27.00;7.10;;;;;;5121802;27;34305;-77
2022/08/31 12:32:22;;;;;;;3.15;2.22;;;27.00;5.80;;;;;;5168879;27;34229;-77
2022/08/31 12:34:59;;;;;;;1.88;1.77;;;27.10;4.50;;;;;;5137646;27;34289;-76
2022/08/31 12:37:29;;;;;;;2.08;1.88;;;27.30;8.10;;;;;;5149188;27;36345;-76
2022/08/31 12:40:13;;;;;;;2.40;2.03;;;27.50;8.50;;;;;;5149478;27;34180;-76
2022/08/31 12:42:55;;;;;;;2.00;1.80;;;27.60;7.20;;;;;;5149516;27;34505;-75
2022/08/31 12:45:46;;;;;;;2.53;2.05;;;27.70;8.10;;;;;;5149617;27;34366;-76
2022/08/31 12:48:45;;;;;;;2.47;2.05;;;27.90;5.80;;;;;;5149893;27;34464;-76
2022/08/31 12:51:37;;;;;;;2.50;2.30;;;28.10;6.90;;;;;;5137899;27;34146;-76
2022/08/31 12:54:38;;;;;;;2.03;1.88;;;28.20;4.30;;;;;;5150329;27;34136;-74
2022/08/31 12:57:33;;;;;;;2.78;2.05;;;28.20;3.70;;;;;;5137572;27;34368;-76
2022/08/31 13:00:16;;;;;;;2.90;2.50;;;28.20;3.40;;;;;;5148486;27;34351;-75
2022/08/31 13:02:46;;;;;;;2.05;1.80;;;28.40;5.00;;;;;;5146381;27;34162;-76
2022/08/31 13:05:25;;;;;;;2.40;2.20;;;28.40;7.00;;;;;;5146192;27;34192;-76
2022/08/31 13:07:52;;;;;;;3.35;2.08;;;28.40;6.40;;;;;;5146425;27;34009;-76
2022/08/31 13:10:32;;;;;;;1.90;1.80;;;28.20;6.90;;;;;;5145675;27;35736;-77
2022/08/31 13:13:03;;;;;;;2.20;2.00;;;28.10;5.50;;;;;;5146874;27;34212;-77
2022/08/31 13:15:34;;;;;;;2.70;2.28;;;28.20;6.30;;;;;;5145833;27;34298;-75
2022/08/31 13:18:01;;;;;;;2.20;2.00;;;28.20;5.80;;;;;;5129161;27;34359;-76
2022/08/31 13:20:34;;;;;;;2.30;1.92;;;28.30;6.50;;;;;;5145988;27;34438;-76
2022/08/31 13:23:01;;;;;;;2.80;2.22;;;28.30;5.80;;;;;;5128528;27;34270;-76
2022/08/31 13:25:35;;;;;;;3.10;2.30;;;28.40;6.00;;;;;;5128823;27;34446;-77
2022/08/31 13:28:24;;;;;;;3.20;2.20;;;28.40;5.40;;;;;;5128976;27;34246;-76
2022/08/31 13:31:00;;;;;;;4.90;2.40;;;28.50;4.70;;;;;;5128226;27;34186;-75
2022/08/31 13:33:31;;;;;;;2.40;2.20;;;28.50;3.60;;;;;;5128900;27;34210;-76